Main page
METAR-TAF:

METAR-TAF

Airports :

Andravida, Greece

latitude: 37-55N, longitude: 021-17E, elevation: 10 m

Current weather observation

The report was made 11 minutes ago, at 05:20 UTC
Calm wind
Temperature 20°C
Humidity 73%
Pressure 1010 hPa
Visibility 10 km or more
Few clouds at a height of 8000 ft

METAR: LGAD 210520Z 00000KT 9999 FEW080 20/15 Q1010

Time: 08:31 (05:31 UTC)

Forecast

The report was made 3 hours and 31 minutes ago, at 02:00 UTC
Forecast valid from 21 at 03 UTC to 21 at 12 UTC
Wind 10 kt from the North/Northeast with gusts up to 20 kt
Visibility 10 km or more
Few clouds at a height of 2500 ft

TAF: LGAD 210200Z 2103/2112 03010G20KT 9999 FEW025

Weather observations and forecasts of more than 4000 airports (METAR and TAF reports).

The available stations are represented by yellow and red dots on the map.

Hover mouse over dot to see the name of the station.

Then click to see weather observations and forecasts.

To change the map : click on the green buttons with a black cross to zoom in, on the green button with a dash to zoom out, or on the green arrows for adjacent maps.


METAR-TAF: